Cadiz, OH (43907)

8:25 PM EDT on August 01, 2014 (GMT -0400)
Sunset Gardens (KOHWINTE1) Elev 1150 ft | 40.38 °N, 80.72 °W | Change Station

Current weather conditions updated 15 seconds ago

Partly Cloudy
Partly Cloudy
75.4 °F
Feels Like 77 °F
N
0.0
Wind Variable Wind from East
Gusts 1.0 mph

Tomorrow is forecast to be Cooler than today. Scattered thunderstorms possible.

Today
High -- | Low -- °F
--% Chance of Precip.
Yesterday
High -- | Low -- °F
Precip. -- in
6:21 AM 8:38 PM
Waxing Crescent, 30% visible
Pressure 30.08 in
Visibility 10.0 miles
Clouds Few 5500 ft
Heat Index 77 °F
Dew Point 64 °F
Humidity 69%
Rainfall 0.00 in
Snow Depth Not available.
UV 0 out of 12
Pollen 6.60 out of 12
Air Quality Not available.
Flu Activity Not available.
METAR KHLG 012353Z 15005KT 10SM FEW055 23/17 A3009 RMK AO2 SLP186 T02330167 10283 20233 55001

More Conditions Fewer Conditions

Pressure 30.08 in
Visibility 10.0 miles
Clouds Few 5500 ft
Heat Index 77 °F
Dew Point 64 °F
Humidity 69%
Rainfall 0.00 in
Snow Depth Not available.
UV 0 out of 12
Pollen 6.60 out of 12
Air Quality Not available.
Flu Activity Not available.
METAR KHLG 012353Z 15005KT 10SM FEW055 23/17 A3009 RMK AO2 SLP186 T02330167 10283 20233 55001

More Conditions Fewer Conditions

10-Day Weather Forecast

Almanac

Astronomy

Aug. 01, 2014 Rise Set
Actual Time 6:21 AM EDT 8:38 PM EDT
Civil Twilight 5:51 AM EDT 9:08 PM EDT
Nautical Twilight 5:13 AM EDT 9:46 PM EDT
Astronomical Twilight 4:32 AM EDT 10:27 PM EDT
Moon 11:45 AM EDT (8/1) 11:21 PM EDT (8/1)
Length of Visible Light 15h 17m
Length of Day
14h 16m
Tomorrow will be 2m 1s shorter.
Waxing Crescent, 30% of the Moon is Illuminated
Today
Waxing Crescent
Aug 3
First Quarter
Aug 10
Full
Aug 17
Last Quarter
Aug 25
New

Today's Extremes

State Highs State Lows

Community

WunderPhotos

Upload Photos

1,739,763 photos uploaded!

Nearby

Snow Depth

Station Depth Elevation
No new snow has been reported.

Earthquake Activity

City Distance Mag. Time & Date
No recent earthquake activity has been reported nearby.
Minimum magnitude displayed is 2.5.

Coastal Water Temperatures

Place Temperature
No Stations Reporting

Nearby Weather Stations

Station Location Temp. Heat Index Dew Point Humidity Wind Precip. Elev Updated Type
Sunset Gardens, Wintersville, OH 75.4 °F 77 °F 64 °F 69% East  at  0.0 mph 0.00 in / hr 1150 ft 8:25 PM EDT Normal
Crawford Heights, Martins Ferry, OH 74.8 °F 77 °F 64 °F 69% ESE  at  2.7 mph - / hr 1109 ft 8:21 PM EDT Normal
Whitmar Hills, Wheeling, WV 72.6 °F 72 °F 68 °F 84% SSW  at  0.0 mph 0.00 in / hr 1060 ft 8:25 PM EDT Normal
Clinton Hills, Triadelphia, WV 75.4 °F 77 °F 65 °F 70% NNW  at  0.0 mph - / hr 1122 ft 8:17 PM EDT Normal
Highland Hills, Follansbee, WV 76.3 °F 78 °F 65 °F 68% SSE  at  0.0 mph - / hr 968 ft 8:17 PM EDT Normal

Show More Stations Show Fewer Stations